Time;durP1;ratioP1;P1;durP2;ratioP2;P2;SDS_P1;SDS_P2;PMS_P1;PMS_P2;Temp;Humidity;BMP_temperature;BMP_pressure;BME280_temperature;BME280_humidity;BME280_pressure;Samples;Min_cycle;Max_cycle;Signal;HPM_P1;HPM_P2
2022/01/01 00:02:13;;;;;;;9.90;6.93;;;12.60;99.90;;;;;;5049939;28;20437;-70
2022/01/01 00:04:40;;;;;;;11.67;7.90;;;12.60;99.90;;;;;;5046520;28;20459;-70
2022/01/01 00:07:05;;;;;;;12.40;9.50;;;12.60;99.90;;;;;;5045909;28;20200;-71
2022/01/01 00:09:31;;;;;;;16.10;9.63;;;12.50;99.90;;;;;;5046231;28;20454;-70
2022/01/01 00:11:56;;;;;;;13.97;8.93;;;12.50;99.90;;;;;;5045107;28;20647;-71
2022/01/01 00:14:22;;;;;;;15.50;10.37;;;12.50;99.90;;;;;;5047330;28;20208;-70
2022/01/01 00:16:47;;;;;;;15.50;9.60;;;12.50;99.90;;;;;;5044661;28;20279;-70
2022/01/01 00:19:13;;;;;;;11.73;8.33;;;12.50;99.90;;;;;;5047475;28;20300;-70
2022/01/01 00:21:41;;;;;;;13.17;7.60;;;12.50;99.90;;;;;;5045421;28;20368;-70
2022/01/01 00:24:06;;;;;;;10.97;7.03;;;12.50;99.90;;;;;;5046231;28;20300;-70
2022/01/01 00:26:32;;;;;;;13.10;7.93;;;12.50;99.90;;;;;;5050348;28;20629;-70
2022/01/01 00:28:58;;;;;;;12.47;7.80;;;12.40;99.90;;;;;;5051805;28;20211;-70
2022/01/01 00:31:23;;;;;;;9.63;7.70;;;12.40;99.90;;;;;;5045352;28;20625;-70
2022/01/01 00:33:49;;;;;;;12.17;7.27;;;12.40;99.90;;;;;;5063115;28;20192;-70
2022/01/01 00:36:14;;;;;;;9.87;6.97;;;12.40;99.90;;;;;;5058084;28;20913;-70
2022/01/01 00:38:40;;;;;;;11.63;7.13;;;12.30;99.90;;;;;;5049047;28;20177;-70
2022/01/01 00:41:05;;;;;;;12.80;7.47;;;12.30;99.90;;;;;;5046378;28;20181;-70
2022/01/01 00:43:31;;;;;;;14.43;8.10;;;12.30;99.90;;;;;;5045121;28;20555;-69
2022/01/01 00:45:56;;;;;;;10.23;7.27;;;12.30;99.90;;;;;;5049720;28;20184;-70
2022/01/01 00:48:22;;;;;;;8.53;6.20;;;12.30;99.90;;;;;;5048813;28;20470;-70
2022/01/01 00:50:47;;;;;;;10.87;7.73;;;12.30;99.90;;;;;;5050486;28;20660;-70
2022/01/01 00:53:13;;;;;;;9.63;7.23;;;12.30;99.90;;;;;;5051199;28;20208;-70
2022/01/01 00:55:38;;;;;;;9.10;6.67;;;12.30;99.90;;;;;;5050163;28;20212;-71
2022/01/01 00:58:04;;;;;;;10.77;6.30;;;12.30;99.90;;;;;;5048662;28;20260;-70
2022/01/01 01:00:30;;;;;;;8.67;6.10;;;12.20;99.90;;;;;;5050322;28;20282;-70
2022/01/01 01:02:55;;;;;;;9.37;7.00;;;12.20;99.90;;;;;;5048965;28;20220;-71
2022/01/01 01:05:21;;;;;;;7.50;6.20;;;12.20;99.90;;;;;;5049627;28;20165;-70
2022/01/01 01:07:46;;;;;;;10.30;6.60;;;12.30;99.90;;;;;;5048974;28;20181;-71
2022/01/01 01:10:13;;;;;;;10.80;7.30;;;12.30;99.90;;;;;;5050144;28;20184;-70
2022/01/01 01:12:43;;;;;;;10.00;6.20;;;12.20;99.90;;;;;;5050977;28;20225;-70
2022/01/01 01:15:16;;;;;;;10.50;6.67;;;12.20;99.90;;;;;;5054768;28;20569;-71
2022/01/01 01:17:43;;;;;;;9.20;6.10;;;12.20;99.90;;;;;;5048464;28;20419;-70
2022/01/01 01:20:09;;;;;;;8.57;6.03;;;12.20;99.90;;;;;;5049961;28;20412;-71
2022/01/01 01:22:35;;;;;;;8.53;6.67;;;12.20;99.90;;;;;;5049415;28;20450;-70
2022/01/01 01:25:01;;;;;;;10.03;6.57;;;12.20;99.90;;;;;;5050347;28;20412;-70
2022/01/01 01:27:28;;;;;;;7.17;5.80;;;12.30;99.90;;;;;;5048572;28;20238;-70
2022/01/01 01:29:54;;;;;;;7.43;5.83;;;12.30;99.90;;;;;;5048215;28;20563;-69
2022/01/01 01:32:20;;;;;;;9.90;6.10;;;12.30;99.90;;;;;;5049737;28;20424;-71
2022/01/01 01:34:45;;;;;;;9.30;5.93;;;12.30;99.90;;;;;;5049570;28;20951;-70
2022/01/01 01:37:11;;;;;;;9.57;6.40;;;12.20;99.90;;;;;;5046459;28;20194;-71
2022/01/01 01:39:36;;;;;;;8.30;5.60;;;12.30;99.90;;;;;;5048464;28;20619;-71
2022/01/01 01:42:02;;;;;;;9.77;5.80;;;12.30;99.90;;;;;;5049367;28;20362;-70
2022/01/01 01:44:35;;;;;;;8.17;5.63;;;12.30;99.90;;;;;;5057997;28;20328;-71
2022/01/01 01:47:03;;;;;;;8.50;5.47;;;12.20;99.90;;;;;;5048544;28;20469;-70
2022/01/01 01:49:29;;;;;;;11.33;6.03;;;12.50;99.90;;;;;;5057918;28;20935;-70
2022/01/01 01:51:55;;;;;;;7.90;5.73;;;12.30;99.90;;;;;;5056881;28;20426;-71
2022/01/01 01:54:21;;;;;;;8.17;5.50;;;12.30;99.90;;;;;;5042158;28;20596;-70
2022/01/01 01:56:47;;;;;;;7.87;5.53;;;12.30;99.90;;;;;;5047220;28;20820;-70
2022/01/01 01:59:14;;;;;;;9.23;5.37;;;12.30;99.90;;;;;;5049584;28;20431;-70
2022/01/01 02:01:41;;;;;;;7.30;5.07;;;12.30;99.90;;;;;;5048572;28;20177;-70
2022/01/01 02:04:06;;;;;;;6.87;5.20;;;12.30;99.90;;;;;;5049662;28;20467;-71
2022/01/01 02:06:33;;;;;;;9.10;5.30;;;12.30;99.90;;;;;;5047754;28;20442;-71
2022/01/01 02:08:59;;;;;;;7.00;5.20;;;12.30;99.90;;;;;;5049149;28;20280;-71
2022/01/01 02:11:24;;;;;;;8.83;5.83;;;12.30;99.90;;;;;;5048746;28;20760;-71
2022/01/01 02:18:50;;;;;;;8.50;5.23;;;12.30;99.90;;;;;;5053777;28;20428;-71
2022/01/01 02:21:16;;;;;;;7.57;5.00;;;12.30;99.90;;;;;;5045783;28;20438;-71
2022/01/01 02:23:44;;;;;;;6.83;4.90;;;12.30;99.90;;;;;;5049196;28;20475;-71
2022/01/01 02:26:12;;;;;;;7.50;5.40;;;10.50;99.90;;;;;;5048759;28;20422;-71
2022/01/01 02:28:41;;;;;;;7.70;5.17;;;12.20;99.90;;;;;;5047589;28;20424;-70
2022/01/01 02:31:06;;;;;;;11.60;5.23;;;12.20;99.90;;;;;;5047459;28;20420;-70
2022/01/01 02:33:32;;;;;;;5.90;5.00;;;12.20;99.90;;;;;;5049336;28;20802;-70
2022/01/01 02:35:58;;;;;;;6.03;4.57;;;12.20;99.90;;;;;;5047627;28;20179;-71
2022/01/01 02:38:24;;;;;;;9.07;5.40;;;12.20;99.90;;;;;;5047385;28;20598;-71
2022/01/01 02:40:49;;;;;;;9.67;5.90;;;12.20;99.90;;;;;;5047644;28;20866;-70
2022/01/01 02:43:17;;;;;;;12.00;5.80;;;12.20;99.90;;;;;;5044875;28;20270;-70
2022/01/01 02:45:43;;;;;;;8.83;5.40;;;12.20;99.90;;;;;;5049464;28;20180;-70
2022/01/01 02:48:08;;;;;;;13.77;5.90;;;12.20;99.90;;;;;;5047390;28;20420;-70
2022/01/01 02:50:34;;;;;;;6.90;4.73;;;12.20;99.90;;;;;;5046138;28;20315;-70
2022/01/01 02:52:59;;;;;;;10.07;5.50;;;12.30;99.90;;;;;;5048055;28;20548;-70
2022/01/01 02:55:25;;;;;;;10.20;5.20;;;12.30;99.90;;;;;;5048210;28;20334;-70
2022/01/01 02:57:50;;;;;;;7.07;4.80;;;12.30;99.90;;;;;;5047873;28;20698;-70
2022/01/01 03:00:17;;;;;;;5.90;5.10;;;12.30;99.90;;;;;;5046301;28;20170;-71
2022/01/01 03:02:45;;;;;;;6.83;4.90;;;12.20;99.90;;;;;;5046468;28;20201;-71
2022/01/01 03:05:10;;;;;;;7.37;4.90;;;12.20;99.90;;;;;;5047940;28;20538;-70
2022/01/01 03:07:36;;;;;;;7.40;5.07;;;12.10;99.90;;;;;;5045844;28;20810;-70
2022/01/01 03:10:03;;;;;;;12.07;5.50;;;12.00;99.90;;;;;;5046159;28;20739;-70
2022/01/01 03:12:29;;;;;;;7.43;5.27;;;11.90;99.90;;;;;;5041977;28;20439;-70
2022/01/01 03:14:54;;;;;;;7.73;5.07;;;11.90;99.90;;;;;;5053890;28;20430;-70
2022/01/01 03:17:20;;;;;;;6.77;5.10;;;11.90;99.90;;;;;;5047088;28;20289;-70
2022/01/01 03:19:45;;;;;;;7.63;5.20;;;11.90;99.90;;;;;;5047514;28;20665;-70
2022/01/01 03:22:11;;;;;;;8.17;5.33;;;11.90;99.90;;;;;;5047052;28;20204;-70
2022/01/01 03:24:36;;;;;;;9.67;5.13;;;11.90;99.90;;;;;;5047988;28;20281;-70
2022/01/01 03:27:02;;;;;;;6.00;4.50;;;11.90;99.90;;;;;;5047531;28;20165;-70
2022/01/01 03:29:30;;;;;;;8.80;4.93;;;14.00;99.90;;;;;;5047894;28;20181;-70
2022/01/01 03:31:56;;;;;;;7.13;5.07;;;12.20;99.90;;;;;;5047409;28;20419;-70
2022/01/01 03:34:22;;;;;;;6.90;5.30;;;11.90;99.90;;;;;;5048097;28;20451;-70
2022/01/01 03:36:48;;;;;;;8.30;5.60;;;11.80;99.90;;;;;;5046222;28;20450;-71
2022/01/01 03:39:13;;;;;;;7.13;5.23;;;11.90;99.90;;;;;;5046690;28;20239;-70
2022/01/01 03:41:39;;;;;;;10.70;6.03;;;11.80;99.90;;;;;;5046818;28;20189;-71
2022/01/01 03:44:05;;;;;;;9.17;5.03;;;11.80;99.90;;;;;;5054590;28;20614;-71
2022/01/01 03:46:30;;;;;;;10.40;5.60;;;11.90;99.90;;;;;;5053094;28;20192;-72
2022/01/01 03:48:56;;;;;;;9.10;5.50;;;11.90;99.90;;;;;;5047622;28;20188;-71
2022/01/01 03:51:21;;;;;;;9.17;5.50;;;11.80;99.90;;;;;;5045813;28;20184;-70
2022/01/01 03:53:47;;;;;;;8.70;6.30;;;11.80;99.90;;;;;;5042764;28;20255;-70
2022/01/01 03:56:14;;;;;;;12.10;7.60;;;11.80;99.90;;;;;;5042471;28;20239;-70
2022/01/01 03:58:40;;;;;;;14.10;6.73;;;11.80;99.90;;;;;;5047203;28;20634;-71
2022/01/01 04:01:06;;;;;;;7.10;5.10;;;11.70;99.90;;;;;;5046554;28;20581;-71
2022/01/01 04:03:31;;;;;;;12.10;5.57;;;11.70;99.90;;;;;;5046338;28;20562;-71
2022/01/01 04:05:57;;;;;;;12.77;6.77;;;11.70;99.90;;;;;;5044908;28;20179;-71
2022/01/01 04:08:22;;;;;;;15.30;8.10;;;11.60;99.90;;;;;;5045735;28;20596;-70
2022/01/01 04:10:48;;;;;;;11.70;7.50;;;11.60;99.90;;;;;;5046798;28;20181;-71
2022/01/01 04:13:13;;;;;;;6.90;5.70;;;11.50;99.90;;;;;;5054756;28;20204;-70
2022/01/01 04:15:41;;;;;;;6.70;4.57;;;11.60;99.90;;;;;;5047271;28;20200;-70
2022/01/01 04:18:12;;;;;;;8.70;4.40;;;11.60;99.90;;;;;;5046954;28;20177;-71
2022/01/01 04:20:39;;;;;;;9.00;5.20;;;11.60;99.90;;;;;;5046188;28;20424;-70
2022/01/01 04:23:10;;;;;;;7.90;5.63;;;11.60;99.90;;;;;;5045290;28;20475;-71
2022/01/01 04:25:36;;;;;;;8.83;5.97;;;11.60;99.90;;;;;;5046754;28;20426;-71
2022/01/01 04:28:03;;;;;;;10.37;6.60;;;11.50;99.90;;;;;;5047464;28;20403;-69
2022/01/01 04:30:31;;;;;;;10.10;6.90;;;11.50;99.90;;;;;;5062528;28;20735;-70
2022/01/01 04:32:57;;;;;;;12.70;7.50;;;11.40;99.90;;;;;;5062393;28;20478;-70
2022/01/01 04:35:23;;;;;;;11.93;7.93;;;11.40;99.90;;;;;;5046984;28;20591;-70
2022/01/01 04:37:49;;;;;;;14.20;8.77;;;11.40;99.90;;;;;;5046760;28;20424;-71
2022/01/01 04:40:15;;;;;;;15.43;10.00;;;11.40;99.90;;;;;;5045601;28;20437;-70
2022/01/01 04:42:40;;;;;;;15.37;9.50;;;11.40;99.90;;;;;;5047626;28;20273;-70
2022/01/01 04:45:06;;;;;;;15.33;9.20;;;11.30;99.90;;;;;;5046493;28;20173;-71
2022/01/01 04:47:32;;;;;;;20.03;9.90;;;11.40;99.90;;;;;;5046640;28;20236;-71
2022/01/01 04:49:58;;;;;;;16.70;10.90;;;;;;;;;;5046659;28;20173;-71
2022/01/01 04:52:23;;;;;;;16.97;9.87;;;11.30;99.90;;;;;;5046140;28;20243;-70
2022/01/01 04:54:49;;;;;;;16.90;10.30;;;11.30;99.90;;;;;;5045369;28;20778;-71
2022/01/01 04:57:14;;;;;;;17.43;10.20;;;11.30;99.90;;;;;;5046733;28;20189;-71
2022/01/01 04:59:41;;;;;;;20.80;9.70;;;11.30;99.90;;;;;;5047214;28;20227;-71
2022/01/01 05:02:07;;;;;;;16.77;10.03;;;11.30;99.90;;;;;;5046104;28;20216;-70
2022/01/01 05:04:35;;;;;;;19.60;10.70;;;11.30;99.90;;;;;;5047022;28;20470;-70
2022/01/01 05:07:01;;;;;;;18.10;10.50;;;11.30;99.90;;;;;;5045315;28;20735;-70
2022/01/01 05:09:28;;;;;;;17.27;9.80;;;11.30;99.90;;;;;;5046893;28;20520;-69
2022/01/01 05:11:54;;;;;;;17.83;10.43;;;11.30;99.90;;;;;;5049647;28;20875;-70
2022/01/01 05:14:19;;;;;;;19.57;10.97;;;11.30;99.90;;;;;;5058236;28;20459;-70
2022/01/01 05:16:45;;;;;;;19.30;10.17;;;11.30;99.90;;;;;;5049280;28;20439;-69
2022/01/01 05:19:11;;;;;;;18.00;10.57;;;11.30;99.90;;;;;;5050238;28;20510;-70
2022/01/01 05:21:36;;;;;;;15.40;9.60;;;11.20;99.90;;;;;;5048760;28;20221;-70
2022/01/01 05:24:06;;;;;;;15.93;10.03;;;11.20;99.90;;;;;;5050152;28;20220;-71
2022/01/01 05:26:32;;;;;;;18.53;9.93;;;11.20;99.90;;;;;;5049941;28;20626;-70
2022/01/01 05:28:58;;;;;;;15.43;10.00;;;11.20;99.90;;;;;;5049859;28;20428;-71
2022/01/01 05:31:24;;;;;;;16.27;9.50;;;11.20;99.90;;;;;;5049553;28;20434;-71
2022/01/01 05:33:50;;;;;;;17.20;9.90;;;11.20;99.90;;;;;;5050382;28;20224;-70
2022/01/01 05:36:16;;;;;;;19.47;9.93;;;11.20;99.90;;;;;;5046961;28;20231;-71
2022/01/01 05:38:42;;;;;;;27.93;10.47;;;11.20;99.90;;;;;;5048018;28;20470;-70
2022/01/01 05:41:08;;;;;;;16.40;10.30;;;11.20;99.90;;;;;;5049145;28;20427;-70
2022/01/01 05:43:34;;;;;;;16.03;10.20;;;11.20;99.90;;;;;;5051931;28;20517;-70
2022/01/01 05:46:00;;;;;;;19.80;10.50;;;11.20;99.90;;;;;;5064659;28;20184;-70
2022/01/01 05:48:25;;;;;;;17.93;10.73;;;11.20;99.90;;;;;;5057938;28;20677;-70
2022/01/01 05:50:51;;;;;;;17.53;10.30;;;11.20;99.90;;;;;;5046829;28;20426;-70
2022/01/01 05:53:16;;;;;;;20.47;10.90;;;11.20;99.90;;;;;;5047831;28;20228;-70
2022/01/01 05:55:42;;;;;;;18.97;10.33;;;11.20;99.90;;;;;;5040892;28;20260;-70
2022/01/01 05:58:08;;;;;;;19.30;10.17;;;11.20;99.90;;;;;;5047933;28;20268;-69
2022/01/01 06:00:35;;;;;;;17.37;11.50;;;11.30;99.90;;;;;;5049385;28;20196;-70
2022/01/01 06:03:00;;;;;;;17.93;10.17;;;11.30;99.90;;;;;;5049051;28;20320;-70
2022/01/01 06:05:27;;;;;;;28.27;11.13;;;11.30;99.90;;;;;;5048833;28;20517;-69
2022/01/01 06:07:54;;;;;;;18.33;10.03;;;11.30;99.90;;;;;;5048005;28;20179;-70
2022/01/01 06:10:20;;;;;;;18.80;10.93;;;11.30;99.90;;;;;;5049486;28;20834;-69
2022/01/01 06:12:46;;;;;;;16.83;10.40;;;11.20;99.90;;;;;;5052986;28;20438;-70
2022/01/01 06:15:11;;;;;;;19.33;11.00;;;11.30;99.90;;;;;;5055582;28;20184;-70
2022/01/01 06:17:37;;;;;;;16.80;11.00;;;11.30;99.90;;;;;;5049207;28;20177;-70
2022/01/01 06:20:03;;;;;;;21.27;11.20;;;11.40;99.90;;;;;;5048777;28;20173;-70
2022/01/01 06:22:28;;;;;;;17.40;10.83;;;11.40;99.90;;;;;;5047629;28;20217;-70
2022/01/01 06:24:54;;;;;;;18.23;9.90;;;11.40;99.90;;;;;;5047129;28;20544;-70
2022/01/01 06:27:19;;;;;;;19.37;10.27;;;11.40;99.90;;;;;;5048674;28;20685;-70
2022/01/01 06:29:45;;;;;;;20.83;10.73;;;11.40;99.90;;;;;;5048897;28;20456;-71
2022/01/01 06:32:11;;;;;;;21.63;10.50;;;11.40;99.90;;;;;;5048746;28;20731;-70
2022/01/01 06:34:37;;;;;;;18.13;10.70;;;11.40;99.90;;;;;;5049383;28;20445;-71
2022/01/01 06:37:03;;;;;;;22.73;10.60;;;11.40;99.90;;;;;;5045428;28;21015;-71
2022/01/01 06:39:28;;;;;;;19.47;10.73;;;11.40;99.90;;;;;;5048608;28;20322;-70
2022/01/01 06:41:54;;;;;;;12.83;9.60;;;11.40;99.90;;;;;;5046821;28;20193;-70
2022/01/01 06:44:19;;;;;;;15.33;9.90;;;11.30;99.90;;;;;;5044516;28;20208;-69
2022/01/01 06:46:45;;;;;;;17.43;9.77;;;11.40;99.90;;;;;;5047409;28;20185;-70
2022/01/01 06:49:10;;;;;;;17.37;10.60;;;11.40;99.90;;;;;;5048411;28;20181;-70
2022/01/01 06:51:36;;;;;;;23.67;11.60;;;11.40;99.90;;;;;;5045440;28;20181;-70
2022/01/01 06:54:05;;;;;;;19.53;12.20;;;11.30;99.90;;;;;;5047507;28;20208;-69
2022/01/01 06:56:31;;;;;;;20.10;10.87;;;11.30;99.90;;;;;;5046454;28;20592;-70
2022/01/01 06:58:56;;;;;;;16.20;10.97;;;11.30;99.90;;;;;;5048873;28;20427;-70
2022/01/01 07:01:22;;;;;;;22.20;11.30;;;11.30;99.90;;;;;;5047927;28;20193;-71
2022/01/01 07:03:47;;;;;;;19.90;11.23;;;8.60;99.90;;;;;;5048191;28;20338;-70
2022/01/01 07:06:13;;;;;;;17.83;10.77;;;11.20;99.90;;;;;;5046697;28;20587;-71
2022/01/01 07:08:39;;;;;;;20.83;9.97;;;11.20;99.90;;;;;;5046760;28;20165;-71
2022/01/01 07:11:04;;;;;;;20.37;10.43;;;11.10;99.90;;;;;;5048362;28;20173;-70
2022/01/01 07:13:30;;;;;;;16.43;10.60;;;11.20;99.90;;;;;;5050212;28;20624;-71
2022/01/01 07:15:56;;;;;;;17.80;10.10;;;11.20;99.90;;;;;;5049044;28;20242;-71
2022/01/01 07:18:21;;;;;;;17.03;10.10;;;11.20;99.90;;;;;;5047932;28;20188;-70
2022/01/01 07:20:47;;;;;;;13.43;9.10;;;11.20;99.90;;;;;;5062063;28;20540;-71
2022/01/01 07:23:12;;;;;;;14.77;9.93;;;11.20;99.90;;;;;;5047992;28;20654;-71
2022/01/01 07:25:38;;;;;;;17.53;9.40;;;11.20;99.90;;;;;;5047472;28;20180;-71
2022/01/01 07:28:03;;;;;;;16.13;10.10;;;11.20;99.90;;;;;;5048228;28;20268;-71
2022/01/01 07:30:29;;;;;;;15.03;9.17;;;11.20;99.90;;;;;;5046215;28;20711;-71
2022/01/01 07:32:55;;;;;;;16.97;10.17;;;11.20;99.90;;;;;;5045736;28;20184;-70
2022/01/01 07:35:21;;;;;;;16.00;10.20;;;11.20;99.90;;;;;;5047288;28;20177;-71
2022/01/01 07:37:47;;;;;;;15.20;9.80;;;11.30;99.90;;;;;;5047300;28;20210;-71
2022/01/01 07:40:15;;;;;;;16.33;10.17;;;11.30;99.90;;;;;;5046195;28;20423;-71
2022/01/01 07:42:42;;;;;;;14.60;9.57;;;11.30;99.90;;;;;;5048663;28;20498;-71
2022/01/01 07:45:08;;;;;;;20.30;9.17;;;11.40;99.90;;;;;;5055727;28;20415;-70
2022/01/01 07:47:34;;;;;;;14.43;9.33;;;11.40;99.90;;;;;;5048585;28;20771;-70
2022/01/01 07:50:00;;;;;;;18.90;9.23;;;11.30;99.90;;;;;;5045813;28;20698;-70
2022/01/01 16:32:02;;;;;;;16.73;9.70;;;10.70;99.90;;;;;;5049524;28;20564;-70
2022/01/01 16:34:29;;;;;;;14.00;8.83;;;10.70;99.90;;;;;;5045508;28;20447;-70
2022/01/01 16:36:55;;;;;;;16.43;9.83;;;10.80;99.90;;;;;;5043826;28;20431;-69
2022/01/01 16:39:23;;;;;;;16.63;9.20;;;10.90;99.90;;;;;;5043477;28;20833;-70
2022/01/01 16:42:02;;;;;;;17.70;8.93;;;11.10;99.90;;;;;;5042335;28;20181;-70
2022/01/01 16:44:44;;;;;;;18.10;8.43;;;11.20;99.90;;;;;;5042400;28;20459;-72
2022/01/01 16:47:33;;;;;;;15.27;8.50;;;11.40;99.90;;;;;;5042578;28;21057;-70
2022/01/01 16:50:02;;;;;;;14.50;8.30;;;11.60;99.90;;;;;;5050519;28;21047;-70
2022/01/01 16:52:27;;;;;;;16.00;10.80;;;11.70;99.90;;;;;;5058097;28;20425;-71
2022/01/01 16:54:57;;;;;;;16.33;11.93;;;11.70;99.90;;;;;;5046489;28;20810;-70
2022/01/01 16:57:27;;;;;;;22.47;13.13;;;11.80;99.90;;;;;;5045014;28;20609;-71
2022/01/01 17:00:03;;;;;;;24.00;11.97;;;11.80;99.90;;;;;;5051639;28;20426;-70
2022/01/01 17:02:35;;;;;;;20.47;12.90;;;11.70;99.90;;;;;;5052014;28;20457;-70
2022/01/01 17:05:11;;;;;;;15.97;9.97;;;11.70;99.90;;;;;;5043850;28;20541;-70
2022/01/01 17:07:41;;;;;;;14.40;9.47;;;11.70;99.90;;;;;;5045732;28;20523;-70
2022/01/01 17:10:12;;;;;;;14.33;9.20;;;12.30;99.90;;;;;;5048939;28;20689;-70
2022/01/01 17:12:39;;;;;;;15.33;9.17;;;11.60;99.90;;;;;;5033245;28;20479;-70
2022/01/01 17:15:06;;;;;;;13.80;8.90;;;11.60;99.90;;;;;;5040838;28;20420;-70
2022/01/01 17:17:54;;;;;;;16.30;9.77;;;11.60;99.90;;;;;;5042944;28;20503;-69
2022/01/01 17:20:42;;;;;;;17.20;10.27;;;11.60;99.90;;;;;;5042852;28;20406;-69
2022/01/01 17:23:20;;;;;;;14.10;9.90;;;11.60;99.90;;;;;;5043261;28;20443;-70
2022/01/01 17:25:49;;;;;;;17.70;10.00;;;11.60;99.90;;;;;;5058649;28;20420;-70
2022/01/01 17:28:32;;;;;;;15.53;9.23;;;11.70;99.90;;;;;;5058970;28;20426;-70
2022/01/01 17:31:01;;;;;;;13.23;8.60;;;11.70;99.90;;;;;;5043029;28;20973;-69
2022/01/01 17:33:37;;;;;;;12.73;9.30;;;11.70;99.90;;;;;;5051738;28;20446;-70
2022/01/01 17:36:20;;;;;;;15.77;9.73;;;11.70;99.90;;;;;;5043097;28;20556;-70
2022/01/01 17:41:55;;;;;;;17.30;10.80;;;11.60;99.90;;;;;;5051294;28;20601;-70
2022/01/01 17:44:22;;;;;;;17.83;11.27;;;11.40;99.90;;;;;;5032262;28;20455;-71
2022/01/01 17:46:49;;;;;;;15.27;11.03;;;11.40;99.90;;;;;;5033327;28;20945;-70
2022/01/01 17:49:20;;;;;;;18.17;10.70;;;11.30;99.90;;;;;;5049476;28;20496;-70
2022/01/01 17:51:51;;;;;;;16.60;9.27;;;11.20;99.90;;;;;;5035217;28;20488;-71
2022/01/01 17:54:18;;;;;;;16.23;8.57;;;11.10;99.90;;;;;;5042343;28;20471;-71
2022/01/01 17:56:47;;;;;;;14.63;9.83;;;10.90;99.90;;;;;;5021278;28;20437;-70
2022/01/01 17:59:14;;;;;;;15.00;9.30;;;10.80;99.90;;;;;;5031090;28;20578;-70
2022/01/01 18:01:44;;;;;;;16.70;9.43;;;10.70;99.90;;;;;;5033763;28;20443;-70
2022/01/01 18:04:16;;;;;;;20.73;10.00;;;10.60;99.90;;;;;;5038985;28;20498;-69
2022/01/01 18:06:42;;;;;;;18.93;10.07;;;10.60;99.90;;;;;;5026834;28;20420;-69
2022/01/01 18:09:11;;;;;;;13.80;7.93;;;10.50;99.90;;;;;;5036699;28;20432;-70
2022/01/01 18:11:47;;;;;;;13.10;7.33;;;10.40;99.90;;;;;;5029430;28;20487;-70
2022/01/01 18:14:14;;;;;;;14.50;6.50;;;10.40;99.90;;;;;;5034056;28;20561;-71
2022/01/01 18:16:41;;;;;;;12.47;7.60;;;10.30;99.90;;;;;;5029064;28;20423;-69
2022/01/01 18:19:09;;;;;;;15.17;9.03;;;10.20;99.90;;;;;;5030267;28;20512;-71
2022/01/01 18:21:37;;;;;;;14.10;9.40;;;10.10;99.90;;;;;;5028029;28;20404;-70
2022/01/01 18:24:11;;;;;;;14.20;8.30;;;10.10;99.90;;;;;;5029532;28;20452;-70
2022/01/01 18:26:42;;;;;;;17.00;8.77;;;10.00;99.90;;;;;;5028688;28;20448;-69
2022/01/01 18:29:08;;;;;;;14.13;8.93;;;9.90;99.90;;;;;;5028425;28;20428;-71
2022/01/01 18:31:34;;;;;;;16.70;9.87;;;9.80;99.90;;;;;;5043379;28;20625;-71
2022/01/01 18:34:02;;;;;;;12.97;8.00;;;9.80;99.90;;;;;;5041209;28;20618;-71
2022/01/01 18:36:29;;;;;;;14.10;7.93;;;9.70;99.90;;;;;;5041979;28;20424;-71
2022/01/01 18:38:58;;;;;;;13.77;8.10;;;9.70;99.90;;;;;;5031540;28;20906;-71
2022/01/01 18:41:25;;;;;;;10.73;7.90;;;9.70;99.90;;;;;;5031470;28;20427;-71
2022/01/01 18:43:52;;;;;;;15.23;8.97;;;9.60;99.90;;;;;;5025537;28;20810;-71
2022/01/01 18:46:18;;;;;;;14.90;9.00;;;9.60;99.90;;;;;;5028230;28;20456;-71
2022/01/01 18:48:44;;;;;;;12.80;8.80;;;9.60;99.90;;;;;;5027342;28;20417;-71
2022/01/01 18:51:27;;;;;;;16.50;9.30;;;9.60;99.90;;;;;;5027016;28;20830;-70
2022/01/01 18:53:52;;;;;;;14.47;8.40;;;9.60;99.90;;;;;;5027958;28;20232;-71
2022/01/01 18:56:26;;;;;;;17.90;9.53;;;9.60;99.90;;;;;;5026934;28;20420;-71
2022/01/01 18:59:03;;;;;;;19.13;10.20;;;9.50;99.90;;;;;;5028355;28;20281;-71
2022/01/01 19:01:32;;;;;;;18.07;9.53;;;9.50;99.90;;;;;;5026154;28;20455;-71
2022/01/01 19:04:01;;;;;;;16.80;9.63;;;9.50;99.90;;;;;;5028415;28;20447;-71
2022/01/01 19:06:29;;;;;;;17.33;9.00;;;9.50;99.90;;;;;;5027541;28;20417;-71
2022/01/01 19:08:56;;;;;;;15.60;8.60;;;9.50;99.90;;;;;;5027741;28;20444;-71
2022/01/01 19:11:37;;;;;;;17.23;9.10;;;9.40;99.90;;;;;;5026606;28;20551;-70
2022/01/01 19:14:09;;;;;;;15.53;8.60;;;9.40;99.90;;;;;;5025280;28;20432;-71
2022/01/01 19:16:36;;;;;;;14.40;8.50;;;9.30;99.90;;;;;;5026043;28;20470;-70
2022/01/01 19:19:02;;;;;;;11.50;8.13;;;9.30;99.90;;;;;;5025193;28;20457;-71
2022/01/01 19:21:28;;;;;;;14.57;9.13;;;9.20;99.90;;;;;;5026327;28;20523;-71
2022/01/01 19:23:55;;;;;;;12.37;8.30;;;9.20;99.90;;;;;;5027671;28;21037;-70
2022/01/01 19:26:28;;;;;;;14.07;8.33;;;9.20;99.90;;;;;;5028176;28;20711;-70
2022/01/01 19:28:55;;;;;;;12.97;7.33;;;9.20;99.90;;;;;;5026179;28;20499;-70
2022/01/01 19:31:21;;;;;;;13.60;8.37;;;9.10;99.90;;;;;;5026855;28;20456;-70
2022/01/01 19:33:47;;;;;;;18.97;10.27;;;9.10;99.90;;;;;;5027604;28;20456;-71
2022/01/01 19:36:14;;;;;;;17.83;10.00;;;9.20;99.90;;;;;;5026806;28;20421;-70
2022/01/01 19:38:40;;;;;;;17.10;10.33;;;9.10;99.90;;;;;;5027576;28;20429;-71
2022/01/01 19:41:12;;;;;;;16.50;9.90;;;9.00;99.90;;;;;;5027456;28;20433;-70
2022/01/01 19:43:54;;;;;;;17.40;9.60;;;9.10;99.90;;;;;;5027370;28;20545;-70
2022/01/01 19:46:24;;;;;;;15.63;9.50;;;8.90;99.90;;;;;;5027213;28;20455;-71
2022/01/01 19:48:54;;;;;;;16.30;9.63;;;9.00;99.90;;;;;;5027523;28;20425;-70
2022/01/01 19:51:19;;;;;;;15.70;9.37;;;8.90;99.90;;;;;;5026230;28;20474;-70
2022/01/01 19:53:46;;;;;;;17.03;8.93;;;8.80;99.90;;;;;;5027576;28;20779;-71
2022/01/01 19:56:12;;;;;;;17.10;9.37;;;8.70;99.90;;;;;;5025625;28;20597;-71
2022/01/01 19:58:37;;;;;;;11.50;7.50;;;8.70;99.90;;;;;;5026099;28;20417;-71
2022/01/01 20:01:03;;;;;;;16.40;8.10;;;8.70;99.90;;;;;;5024701;28;20191;-70
2022/01/01 20:03:28;;;;;;;13.67;7.50;;;8.60;99.90;;;;;;5027567;28;20209;-70
2022/01/01 20:05:54;;;;;;;15.40;7.87;;;8.60;99.90;;;;;;5025001;28;20243;-71
2022/01/01 20:08:19;;;;;;;13.50;8.00;;;8.50;99.90;;;;;;5026402;28;20178;-71
2022/01/01 20:10:45;;;;;;;14.73;8.50;;;8.50;99.90;;;;;;5025021;28;20194;-71
2022/01/01 20:13:10;;;;;;;12.43;8.17;;;8.50;99.90;;;;;;5027638;28;20201;-71
2022/01/01 20:15:36;;;;;;;14.40;9.10;;;8.50;99.90;;;;;;5035774;28;20652;-69
2022/01/01 20:18:03;;;;;;;13.63;8.10;;;8.50;99.90;;;;;;5025635;28;20682;-71
2022/01/01 20:20:29;;;;;;;16.70;8.93;;;8.50;99.90;;;;;;5027225;28;20181;-71
2022/01/01 20:22:55;;;;;;;15.50;8.10;;;8.50;99.90;;;;;;5029969;28;20456;-71
2022/01/01 20:25:21;;;;;;;13.23;8.27;;;8.40;99.90;;;;;;5028788;28;20675;-71
2022/01/01 20:27:47;;;;;;;13.27;8.57;;;8.40;99.90;;;;;;5027932;28;20421;-69
2022/01/01 20:30:13;;;;;;;14.37;9.37;;;8.40;99.90;;;;;;5032550;28;20201;-70
2022/01/01 20:32:39;;;;;;;20.23;10.50;;;8.40;99.90;;;;;;5036908;28;20303;-71
2022/01/01 20:35:05;;;;;;;21.60;10.23;;;8.40;99.90;;;;;;5031732;28;20181;-70
2022/01/01 20:37:31;;;;;;;13.73;8.60;;;8.40;99.90;;;;;;5041708;28;20256;-70
2022/01/01 20:39:57;;;;;;;12.50;8.60;;;8.40;99.90;;;;;;5033619;28;20522;-71
2022/01/01 20:42:22;;;;;;;15.73;9.93;;;8.30;99.90;;;;;;5040476;28;20208;-71
2022/01/01 20:44:48;;;;;;;24.17;14.80;;;8.30;99.90;;;;;;5026657;28;20213;-70
2022/01/01 20:47:14;;;;;;;30.47;17.77;;;8.20;99.90;;;;;;5014096;28;20190;-71
2022/01/01 20:49:40;;;;;;;23.43;14.60;;;8.20;99.90;;;;;;5025451;28;20630;-69
2022/01/01 20:52:07;;;;;;;19.03;10.60;;;8.20;99.90;;;;;;5025437;28;20421;-70
2022/01/01 20:54:33;;;;;;;16.07;9.40;;;8.20;99.90;;;;;;5044066;28;20890;-70
2022/01/01 20:56:59;;;;;;;20.00;9.90;;;8.20;99.90;;;;;;5047335;28;20457;-70
2022/01/01 20:59:25;;;;;;;20.87;10.47;;;8.10;99.90;;;;;;5035443;28;20424;-70
2022/01/01 21:01:58;;;;;;;16.87;11.47;;;8.00;99.90;;;;;;5028815;28;20182;-70
2022/01/01 21:04:25;;;;;;;17.37;9.97;;;8.10;99.90;;;;;;5027342;28;20439;-70
2022/01/01 21:06:51;;;;;;;16.70;10.40;;;8.10;99.90;;;;;;5031950;28;20450;-71
2022/01/01 21:09:19;;;;;;;23.73;13.30;;;8.00;99.90;;;;;;5042626;28;20499;-70
2022/01/01 21:11:50;;;;;;;23.77;13.20;;;8.40;99.90;;;;;;5041625;28;20467;-70
2022/01/01 21:14:18;;;;;;;25.57;13.60;;;8.00;99.90;;;;;;5026783;28;20471;-70
2022/01/01 21:16:44;;;;;;;21.13;12.40;;;8.00;99.90;;;;;;5026526;28;20440;-71
2022/01/01 21:19:10;;;;;;;21.80;11.30;;;8.00;99.90;;;;;;5030812;28;20428;-70
2022/01/01 21:21:35;;;;;;;16.30;10.83;;;8.00;99.90;;;;;;5026851;28;20497;-70
2022/01/01 21:24:01;;;;;;;20.87;10.87;;;8.00;99.90;;;;;;5029493;28;20194;-70
2022/01/01 21:26:27;;;;;;;17.50;10.60;;;8.00;99.90;;;;;;5030197;28;20189;-71